Time;durP1;ratioP1;P1;durP2;ratioP2;P2;SDS_P1;SDS_P2;PMS_P1;PMS_P2;Temp;Humidity;BMP_temperature;BMP_pressure;BME280_temperature;BME280_humidity;BME280_pressure;Samples;Min_cycle;Max_cycle;Signal;HPM_P1;HPM_P2
2020/12/24 00:02:04;;;;;;;3.33;1.30;;;;;;;8.75;100.00;99681.34;5000448;28;20030;-65
2020/12/24 00:04:29;;;;;;;2.93;1.10;;;;;;;8.72;100.00;99677.03;4996874;28;20041;-65
2020/12/24 00:06:55;;;;;;;2.53;1.13;;;;;;;8.67;100.00;99670.97;5000157;28;20560;-65
2020/12/24 00:09:20;;;;;;;2.13;1.10;;;;;;;8.73;100.00;99680.50;4999395;28;20021;-64
2020/12/24 00:11:46;;;;;;;2.03;0.97;;;;;;;8.74;100.00;99672.66;5005720;28;20501;-64
2020/12/24 00:14:11;;;;;;;2.37;0.93;;;;;;;8.70;100.00;99678.75;4997760;28;20034;-65
2020/12/24 00:16:37;;;;;;;2.67;1.10;;;;;;;8.67;100.00;99673.56;4982761;28;20038;-64
2020/12/24 00:19:02;;;;;;;1.90;0.83;;;;;;;8.68;100.00;99672.69;4999698;28;20034;-65
2020/12/24 00:21:28;;;;;;;2.97;1.23;;;;;;;8.69;100.00;99658.78;5004105;28;20038;-64
2020/12/24 00:23:53;;;;;;;2.80;1.13;;;;;;;8.67;100.00;99660.53;5003188;28;20034;-65
2020/12/24 00:26:18;;;;;;;2.17;1.03;;;;;;;8.75;100.00;99663.97;4999232;28;20034;-65
2020/12/24 00:28:44;;;;;;;3.17;1.30;;;;;;;8.73;100.00;99665.72;5000216;28;20084;-64
2020/12/24 00:31:09;;;;;;;3.43;1.20;;;;;;;8.73;100.00;99660.50;4999713;28;20408;-65
2020/12/24 00:33:35;;;;;;;2.30;1.03;;;;;;;8.71;100.00;99649.19;5003304;28;20046;-65
2020/12/24 00:36:02;;;;;;;2.80;1.20;;;;;;;8.68;100.00;99649.22;5009081;28;20033;-65
2020/12/24 00:38:28;;;;;;;2.53;1.20;;;;;;;8.78;100.00;99643.06;5004998;28;20069;-64
2020/12/24 00:40:54;;;;;;;3.40;1.17;;;;;;;8.79;100.00;99639.59;5004688;28;20041;-64
2020/12/24 00:43:20;;;;;;;3.33;1.33;;;;;;;8.80;100.00;99641.31;4996669;28;20045;-65
2020/12/24 00:45:45;;;;;;;3.50;1.60;;;;;;;8.81;100.00;99643.03;4999340;28;20086;-64
2020/12/24 00:48:10;;;;;;;4.83;1.90;;;;;;;8.86;100.00;99639.56;4995824;28;20026;-64
2020/12/24 00:50:37;;;;;;;4.20;1.63;;;;;;;8.85;100.00;99637.81;4998154;28;20038;-64
2020/12/24 00:53:02;;;;;;;6.57;2.10;;;;;;;8.86;100.00;99639.56;4999690;28;20033;-64
2020/12/24 00:55:27;;;;;;;5.70;2.13;;;;;;;8.78;100.00;99637.84;4999273;28;20532;-65
2020/12/24 00:57:53;;;;;;;6.83;2.37;;;;;;;8.89;100.00;99645.59;4990372;28;20117;-65
2020/12/24 01:00:18;;;;;;;5.10;2.20;;;;;;;8.94;100.00;99654.22;4999464;28;20045;-65
2020/12/24 01:02:44;;;;;;;7.87;2.07;;;;;;;8.94;100.00;99658.56;4990978;28;20042;-65
2020/12/24 01:05:09;;;;;;;6.13;2.53;;;;;;;8.68;100.00;99657.06;4995229;28;20034;-65
2020/12/24 01:07:35;;;;;;;5.57;2.40;;;;;;;8.35;100.00;99678.13;4994441;28;20030;-65
2020/12/24 01:10:04;;;;;;;4.43;2.00;;;;;;;7.94;100.00;99676.56;4996826;28;20030;-65
2020/12/24 01:12:29;;;;;;;3.83;1.20;;;;;;;7.48;100.00;99691.47;5000078;28;20044;-64
2020/12/24 01:14:55;;;;;;;2.87;1.00;;;;;;;7.16;100.00;99687.22;5003711;28;20030;-64
2020/12/24 01:17:20;;;;;;;3.37;1.20;;;;;;;6.90;100.00;99701.94;5008059;28;20401;-65
2020/12/24 01:19:46;;;;;;;2.53;1.00;;;;;;;6.63;100.00;99688.06;5005947;28;20560;-65
2020/12/24 01:22:11;;;;;;;3.40;1.13;;;;;;;6.45;100.00;99688.94;5006318;28;20041;-64
2020/12/24 01:24:36;;;;;;;3.23;1.30;;;;;;;6.32;100.00;99692.38;5006490;28;20038;-64
2020/12/24 01:27:02;;;;;;;3.23;1.17;;;;;;;6.27;100.00;99695.81;5006952;28;20038;-65
2020/12/24 01:29:27;;;;;;;2.73;1.00;;;;;;;6.21;100.00;99699.25;5005615;28;20037;-63
2020/12/24 01:31:53;;;;;;;3.40;1.23;;;;;;;6.16;100.00;99695.78;5004290;28;20034;-65
2020/12/24 01:34:19;;;;;;;3.73;1.33;;;;;;;6.12;100.00;99704.41;5006253;28;20458;-65
2020/12/24 01:36:45;;;;;;;3.73;1.53;;;;;;;6.04;100.00;99706.09;5005480;28;20042;-64
2020/12/24 01:39:12;;;;;;;4.20;1.27;;;;;;;6.03;100.00;99700.06;5005324;28;20088;-64
2020/12/24 01:41:37;;;;;;;3.97;1.50;;;;;;;5.96;100.00;99705.22;5004552;28;20026;-64
2020/12/24 01:44:03;;;;;;;3.40;1.30;;;;;;;5.86;100.00;99710.34;5003310;28;20037;-65
2020/12/24 01:46:28;;;;;;;3.77;1.53;;;;;;;5.91;100.00;99699.13;5003146;28;20481;-66
2020/12/24 01:48:54;;;;;;;4.60;1.63;;;;;;;5.85;100.00;99695.66;5003447;28;20088;-64
2020/12/24 01:51:28;;;;;;;4.40;1.57;;;;;;;5.83;100.00;99689.59;5003545;28;20440;-65
2020/12/24 01:53:56;;;;;;;5.87;2.10;;;;;;;5.82;100.00;99694.78;4986300;28;20132;-66
2020/12/24 01:56:22;;;;;;;5.40;2.20;;;;;;;5.82;100.00;99687.84;4987010;28;20363;-65
2020/12/24 01:58:49;;;;;;;4.60;1.97;;;;;;;5.81;100.00;99693.88;5004073;28;20295;-65
2020/12/24 02:01:15;;;;;;;7.87;2.50;;;;;;;5.82;100.00;99694.78;5005724;28;20285;-65
2020/12/24 02:03:40;;;;;;;7.53;2.67;;;;;;;5.80;100.00;99692.16;5002521;28;20293;-65
2020/12/24 02:06:06;;;;;;;6.93;2.70;;;;;;;5.85;100.00;99684.41;5005311;28;20037;-65
2020/12/24 02:08:32;;;;;;;8.40;2.50;;;;;;;5.84;100.00;99677.47;5003333;28;20030;-65
2020/12/24 02:10:58;;;;;;;7.63;2.27;;;;;;;5.82;100.00;99693.03;5003272;28;20045;-64
2020/12/24 02:13:24;;;;;;;6.60;2.67;;;;;;;5.82;100.00;99693.03;5002755;28;20292;-66
2020/12/24 02:15:49;;;;;;;7.73;2.47;;;;;;;5.79;100.00;99685.22;5004115;28;20663;-65
2020/12/24 02:18:15;;;;;;;8.70;2.97;;;;;;;5.80;100.00;99686.94;5004438;28;20477;-65
2020/12/24 02:20:43;;;;;;;8.73;2.77;;;;;;;5.79;100.00;99690.41;5003204;28;20036;-64
2020/12/24 02:23:10;;;;;;;8.37;2.90;;;;;;;5.81;100.00;99688.69;5004104;28;20034;-64
2020/12/24 02:25:37;;;;;;;11.07;3.10;;;;;;;5.81;100.00;99678.31;5003561;28;20397;-63
2020/12/24 02:28:03;;;;;;;9.30;3.07;;;;;;;5.80;100.00;99676.56;5002580;28;20046;-64
2020/12/24 02:30:28;;;;;;;10.50;3.33;;;;;;;5.78;100.00;99675.72;5003883;28;20630;-65
2020/12/24 02:32:54;;;;;;;10.50;3.27;;;;;;;5.72;100.00;99672.25;5004189;28;20343;-65
2020/12/24 02:35:19;;;;;;;9.63;2.93;;;;;;;5.71;100.00;99681.75;5005279;28;20417;-66
2020/12/24 02:37:45;;;;;;;7.40;2.70;;;;;;;5.71;100.00;99686.06;5002350;28;20093;-65
2020/12/24 02:40:11;;;;;;;8.93;3.10;;;;;;;5.69;100.00;99667.88;4999519;28;20040;-64
2020/12/24 02:42:36;;;;;;;7.27;2.70;;;;;;;5.65;100.00;99679.13;4999242;28;20034;-65
2020/12/24 02:45:02;;;;;;;9.80;3.00;;;;;;;5.64;100.00;99674.78;4997361;28;20111;-64
2020/12/24 02:47:28;;;;;;;7.90;2.83;;;;;;;5.64;100.00;99668.75;5003500;28;20026;-65
2020/12/24 02:49:53;;;;;;;9.60;3.00;;;;;;;5.64;100.00;99659.22;5004774;28;20643;-64
2020/12/24 02:52:18;;;;;;;8.77;3.07;;;;;;;5.62;100.00;99657.50;5002173;28;20026;-64
2020/12/24 02:54:44;;;;;;;9.87;3.00;;;;;;;5.63;100.00;99659.22;4999245;28;20037;-65
2020/12/24 02:57:09;;;;;;;8.33;2.93;;;;;;;5.61;100.00;99659.22;5002647;28;20025;-65
2020/12/24 02:59:34;;;;;;;9.30;3.17;;;;;;;5.60;100.00;99667.88;4999886;28;20680;-62
2020/12/24 03:02:00;;;;;;;10.90;3.43;;;;;;;5.58;100.00;99664.41;4998374;28;20709;-64
2020/12/24 03:04:25;;;;;;;10.33;3.50;;;;;;;5.61;100.00;99669.59;5001628;28;20233;-65
2020/12/24 03:06:51;;;;;;;9.93;3.43;;;;;;;5.61;100.00;99672.19;4999541;28;20058;-64
2020/12/24 03:09:16;;;;;;;10.13;3.53;;;;;;;5.57;100.00;99683.38;4998058;28;20030;-65
2020/12/24 03:11:49;;;;;;;7.77;2.80;;;;;;;5.50;100.00;99681.63;5002992;28;20042;-65
2020/12/24 03:14:17;;;;;;;7.30;2.67;;;;;;;5.48;100.00;99683.34;4997143;28;20034;-65
2020/12/24 03:16:42;;;;;;;8.57;2.70;;;;;;;5.45;100.00;99683.31;5005357;28;20383;-65
2020/12/24 03:19:07;;;;;;;6.40;2.80;;;;;;;5.41;100.00;99690.22;4998182;28;20379;-64
2020/12/24 03:21:33;;;;;;;6.60;2.07;;;;;;;5.35;100.00;99686.75;5000011;28;20032;-65
2020/12/24 03:23:58;;;;;;;5.90;2.00;;;;;;;5.27;100.00;99686.69;4998942;28;20056;-66
2020/12/24 03:26:24;;;;;;;6.83;1.90;;;;;;;5.14;100.00;99696.09;5003081;28;20080;-65
2020/12/24 03:28:49;;;;;;;4.67;1.90;;;;;;;5.10;100.00;99696.94;5003385;28;20060;-65
2020/12/24 03:31:21;;;;;;;7.03;2.17;;;;;;;5.12;100.00;99697.81;5009286;28;20504;-65
2020/12/24 03:33:47;;;;;;;6.10;2.28;;;;;;;5.08;100.00;99695.19;5005600;28;20038;-65
2020/12/24 03:36:12;;;;;;;4.17;1.60;;;;;;;4.97;100.00;99705.50;5009450;28;20022;-64
2020/12/24 03:38:37;;;;;;;4.53;1.50;;;;;;;4.88;100.00;99705.41;5008100;28;20030;-64
2020/12/24 03:41:03;;;;;;;4.23;1.53;;;;;;;4.84;100.00;99711.41;5009259;28;20075;-65
2020/12/24 03:43:28;;;;;;;4.50;1.67;;;;;;;4.80;100.00;99720.00;5009784;28;20648;-64
2020/12/24 03:45:54;;;;;;;4.67;1.70;;;;;;;4.75;100.00;99714.78;5013039;28;20036;-64
2020/12/24 03:48:19;;;;;;;4.83;1.77;;;;;;;4.69;100.00;99705.22;5008777;28;21613;-65
2020/12/24 03:50:45;;;;;;;3.60;1.47;;;;;;;4.64;100.00;99706.94;5011865;28;20026;-66
2020/12/24 03:53:10;;;;;;;8.53;1.70;;;;;;;4.61;100.00;99709.50;5011873;28;20390;-64
2020/12/24 03:55:36;;;;;;;3.80;1.33;;;;;;;4.57;100.00;99707.72;5011329;28;20029;-65
2020/12/24 03:58:01;;;;;;;6.13;2.07;;;;;;;4.55;100.00;99717.19;5011423;28;20064;-65
2020/12/24 04:00:26;;;;;;;5.33;2.07;;;;;;;4.53;100.00;99724.06;5011996;28;20030;-64
2020/12/24 04:02:52;;;;;;;4.47;1.80;;;;;;;4.44;100.00;99731.75;5009928;28;20464;-64
2020/12/24 04:05:17;;;;;;;2.70;1.10;;;;;;;4.29;100.00;99731.59;5011799;28;20029;-64
2020/12/24 04:07:43;;;;;;;3.77;1.50;;;;;;;4.23;100.00;99741.84;5010198;28;20498;-64
2020/12/24 04:10:08;;;;;;;3.20;1.37;;;;;;;4.19;100.00;99737.50;5012175;28;20030;-65
2020/12/24 04:12:34;;;;;;;3.70;1.40;;;;;;;4.18;100.00;99740.94;5008608;28;20392;-64
2020/12/24 04:14:59;;;;;;;4.47;1.70;;;;;;;4.14;100.00;99744.34;5011413;28;20385;-64
2020/12/24 04:17:26;;;;;;;2.73;1.17;;;;;;;4.06;100.00;99752.88;5010526;28;20036;-64
2020/12/24 04:19:51;;;;;;;3.23;1.30;;;;;;;4.03;100.00;99768.38;5009094;28;20491;-64
2020/12/24 04:22:17;;;;;;;2.37;0.90;;;;;;;3.90;100.00;99776.81;5011295;28;20355;-64
2020/12/24 04:24:42;;;;;;;1.33;0.67;;;;;;;3.75;100.00;99782.63;5012275;28;20037;-65
2020/12/24 04:27:08;;;;;;;0.87;0.50;;;;;;;3.59;100.00;99790.16;5013382;28;20481;-65
2020/12/24 04:29:33;;;;;;;0.80;0.50;;;;;;;3.52;100.00;99790.06;5010117;28;20124;-65
2020/12/24 04:31:58;;;;;;;0.87;0.50;;;;;;;3.42;100.00;99798.53;5010177;28;20124;-65
2020/12/24 04:34:24;;;;;;;0.57;0.50;;;;;;;3.31;100.00;99792.31;5010177;28;20451;-64
2020/12/24 04:36:50;;;;;;;1.40;0.70;;;;;;;3.26;100.00;99790.50;5010029;28;20041;-64
2020/12/24 04:39:16;;;;;;;1.30;1.03;;;;;;;3.16;100.00;99797.25;5008659;28;20030;-64
2020/12/24 04:41:42;;;;;;;1.40;0.80;;;;;;;3.08;100.00;99806.56;5011104;28;20276;-63
2020/12/24 04:44:08;;;;;;;0.77;0.60;;;;;;;3.02;100.00;99793.53;5009267;28;20022;-64
2020/12/24 04:46:36;;;;;;;0.97;0.50;;;;;;;2.92;100.00;99798.56;5009323;28;20368;-65
2020/12/24 04:49:01;;;;;;;1.57;0.60;;;;;;;2.83;100.00;99807.88;5012348;28;20346;-65
2020/12/24 04:51:28;;;;;;;0.60;0.40;;;;;;;2.81;100.00;99792.34;5008131;28;20347;-64
2020/12/24 04:53:53;;;;;;;1.77;0.60;;;;;;;2.81;100.00;99807.84;5010153;28;20033;-64
2020/12/24 04:56:19;;;;;;;0.60;0.50;;;;;;;2.79;100.00;99806.94;5011174;28;20647;-63
2020/12/24 04:58:44;;;;;;;1.43;0.70;;;;;;;2.81;100.00;99810.41;5010662;28;20413;-63
2020/12/24 05:01:13;;;;;;;1.87;0.80;;;;;;;2.83;100.00;99816.47;5010211;28;20018;-64
2020/12/24 05:03:39;;;;;;;1.83;0.93;;;;;;;2.84;100.00;99814.75;5011891;28;20026;-64
2020/12/24 05:06:04;;;;;;;1.60;0.70;;;;;;;2.84;100.00;99822.50;5010863;28;20280;-64
2020/12/24 05:08:30;;;;;;;1.60;0.80;;;;;;;2.85;100.00;99819.94;5010156;28;20109;-64
2020/12/24 05:11:03;;;;;;;2.27;1.00;;;;;;;2.89;100.00;99826.03;5011691;28;20029;-64
2020/12/24 05:13:28;;;;;;;2.60;0.93;;;;;;;2.93;100.00;99833.88;5011236;28;20030;-64
2020/12/24 05:15:54;;;;;;;4.73;1.30;;;;;;;2.98;100.00;99835.66;5008828;28;20287;-63
2020/12/24 05:18:23;;;;;;;2.30;1.00;;;;;;;3.02;100.00;99840.03;5010709;28;20504;-64
2020/12/24 05:20:50;;;;;;;1.87;0.90;;;;;;;3.04;100.00;99840.94;5010110;28;20038;-65
2020/12/24 05:23:17;;;;;;;4.20;1.30;;;;;;;3.05;100.00;99840.09;5011006;28;20286;-63
2020/12/24 05:25:44;;;;;;;4.37;1.60;;;;;;;3.08;100.00;99853.94;5011165;28;20284;-64
2020/12/24 05:28:23;;;;;;;6.27;2.10;;;;;;;3.14;100.00;99854.03;5003111;28;20277;-65
2020/12/24 05:30:49;;;;;;;5.90;2.00;;;;;;;3.16;100.00;99856.66;5008177;28;20315;-64
2020/12/24 05:33:32;;;;;;;5.73;2.10;;;;;;;3.20;100.00;99861.03;5010092;28;20316;-65
2020/12/24 05:36:33;;;;;;;7.57;2.47;;;;;;;3.21;100.00;99860.19;5010507;28;20363;-64
2020/12/24 05:38:58;;;;;;;6.10;2.30;;;;;;;3.24;100.00;99865.38;4947757;28;20660;-64
2020/12/24 05:41:34;;;;;;;5.60;2.43;;;;;;;3.23;100.00;99863.66;4994300;28;20363;-63
2020/12/24 05:44:04;;;;;;;6.67;2.40;;;;;;;3.21;100.00;99866.22;5008391;28;20037;-64
2020/12/24 05:46:46;;;;;;;5.50;2.20;;;;;;;3.18;100.00;99871.34;5007170;28;20288;-64
2020/12/24 05:49:22;;;;;;;6.67;1.77;;;;;;;3.19;100.00;99874.78;5005114;28;20370;-64
2020/12/24 05:51:51;;;;;;;4.83;1.70;;;;;;;3.14;100.00;99877.28;5002345;28;20272;-64
2020/12/24 05:54:17;;;;;;;4.80;2.03;;;;;;;3.16;100.00;99893.69;5008674;28;20281;-64
2020/12/24 05:56:44;;;;;;;4.13;1.80;;;;;;;3.12;100.00;99896.16;5009151;28;20815;-65
2020/12/24 05:59:19;;;;;;;5.00;1.87;;;;;;;3.06;100.00;99893.50;5008216;28;20292;-64
2020/12/24 06:02:05;;;;;;;3.73;1.43;;;;;;;3.02;100.00;99894.25;5007191;28;20280;-65
2020/12/24 06:04:46;;;;;;;2.83;1.30;;;;;;;2.97;100.00;99899.34;5009527;28;20404;-65
2020/12/24 06:07:25;;;;;;;3.60;1.27;;;;;;;2.96;100.00;99907.94;5009704;28;20675;-64
2020/12/24 06:09:51;;;;;;;3.87;1.40;;;;;;;2.92;100.00;99908.72;5008418;28;20823;-64
2020/12/24 06:12:24;;;;;;;3.00;1.23;;;;;;;2.90;100.00;99916.41;5009101;28;20352;-65
2020/12/24 06:14:56;;;;;;;3.53;1.47;;;;;;;2.90;100.00;99915.53;5006905;28;20061;-64
2020/12/24 06:17:23;;;;;;;2.83;1.30;;;;;;;2.89;100.00;99925.00;5007075;28;20763;-65
2020/12/24 06:19:49;;;;;;;2.93;1.13;;;;;;;2.85;100.00;99923.22;5007656;28;20289;-64
2020/12/24 06:22:16;;;;;;;3.73;1.47;;;;;;;2.84;100.00;99934.38;5009054;28;20368;-65
2020/12/24 06:24:46;;;;;;;3.97;1.37;;;;;;;2.79;100.00;99936.03;5009062;28;20281;-65
2020/12/24 06:27:42;;;;;;;2.80;1.17;;;;;;;2.76;100.00;99948.84;5008202;28;20644;-64
2020/12/24 06:30:15;;;;;;;2.83;1.20;;;;;;;2.71;100.00;99950.47;4995591;28;20320;-65
2020/12/24 06:32:46;;;;;;;2.93;1.50;;;;;;;2.72;100.00;99949.63;5008090;28;20287;-65
2020/12/24 06:35:32;;;;;;;3.40;1.30;;;;;;;2.68;100.00;99959.88;5008968;28;20277;-64
2020/12/24 06:37:57;;;;;;;5.40;1.20;;;;;;;2.68;100.00;99965.03;5008888;28;20296;-64
2020/12/24 06:40:37;;;;;;;2.93;1.00;;;;;;;2.68;100.00;99968.47;5005613;28;20300;-65
2020/12/24 06:43:09;;;;;;;4.13;1.33;;;;;;;2.67;100.00;99959.00;5008974;28;20025;-64
2020/12/24 06:45:39;;;;;;;3.58;1.35;;;;;;;2.67;100.00;99974.47;5007795;28;20312;-65
2020/12/24 06:48:08;;;;;;;4.63;1.93;;;;;;;2.65;100.00;99976.13;5007664;28;20129;-65
2020/12/24 06:50:36;;;;;;;4.87;1.73;;;;;;;2.60;100.00;99975.19;5008453;28;20276;-64
2020/12/24 06:53:27;;;;;;;4.30;1.60;;;;;;;2.63;100.00;99985.56;5008176;28;20292;-63
2020/12/24 06:56:14;;;;;;;3.50;1.30;;;;;;;2.62;100.00;99989.84;5002462;28;20268;-63
2020/12/24 06:58:41;;;;;;;4.83;2.00;;;;;;;2.66;100.00;100001.09;5007078;28;21045;-65
2020/12/24 07:01:12;;;;;;;6.03;1.83;;;;;;;2.67;100.00;100000.28;5008183;28;20280;-65
2020/12/24 07:03:37;;;;;;;4.63;1.90;;;;;;;2.68;100.00;100007.19;5007306;28;20281;-64
2020/12/24 07:06:03;;;;;;;3.13;1.40;;;;;;;2.66;100.00;100014.00;5007780;28;20277;-65
2020/12/24 07:08:34;;;;;;;4.50;1.70;;;;;;;2.64;100.00;100010.53;5007897;28;20044;-64
2020/12/24 07:11:01;;;;;;;5.70;1.83;;;;;;;2.63;100.00;100013.94;5005724;28;20017;-65
2020/12/24 07:13:35;;;;;;;4.30;1.80;;;;;;;2.62;100.00;100009.63;5007187;28;20798;-64
2020/12/24 07:16:01;;;;;;;5.93;2.03;;;;;;;2.62;100.00;100012.19;5008298;28;20285;-65
2020/12/24 07:18:30;;;;;;;5.30;2.00;;;;;;;2.61;100.00;100023.38;5008043;28;20277;-64
2020/12/24 07:20:59;;;;;;;6.43;2.00;;;;;;;2.60;100.00;100024.22;5008000;28;20372;-65
2020/12/24 07:23:36;;;;;;;8.13;2.40;;;;;;;2.62;100.00;100032.84;5007491;28;20276;-65
2020/12/24 07:26:04;;;;;;;3.90;1.70;;;;;;;2.62;100.00;100038.00;5006646;28;20284;-65
2020/12/24 07:28:35;;;;;;;9.17;2.20;;;;;;;2.65;100.00;100038.06;5006434;28;20288;-65
2020/12/24 07:31:07;;;;;;;5.00;2.03;;;;;;;2.64;100.00;100036.31;4989886;28;20330;-65
2020/12/24 07:33:33;;;;;;;;;;;;;;;2.66;100.00;100050.13;5007454;28;20285;-65
2020/12/24 07:35:59;;;;;;;6.33;1.97;;;;;;;2.68;100.00;100048.50;5008113;28;19967;-65
2020/12/24 07:38:30;;;;;;;7.10;2.27;;;;;;;2.71;100.00;100056.28;5002179;28;20516;-65
2020/12/24 07:40:56;;;;;;;5.27;2.07;;;;;;;2.73;100.00;100067.53;5007747;28;20693;-65
2020/12/24 07:43:24;;;;;;;5.27;1.63;;;;;;;2.72;100.00;100068.34;5005384;28;20370;-64
2020/12/24 07:45:50;;;;;;;4.43;1.73;;;;;;;2.73;100.00;100067.53;5008160;28;20291;-66
2020/12/24 07:48:20;;;;;;;4.63;1.93;;;;;;;2.74;100.00;100077.00;5007542;28;20277;-65
2020/12/24 07:50:48;;;;;;;6.23;1.83;;;;;;;2.75;100.00;100081.31;5007020;28;20392;-65
2020/12/24 07:53:23;;;;;;;6.40;2.07;;;;;;;2.77;100.00;100084.81;5009150;28;20295;-65
2020/12/24 07:55:49;;;;;;;6.50;2.10;;;;;;;2.79;100.00;100088.31;5006936;28;20285;-65
2020/12/24 07:58:16;;;;;;;10.30;1.70;;;;;;;2.82;100.00;100093.56;5004727;28;20686;-65
2020/12/24 08:00:44;;;;;;;7.23;2.00;;;;;;;2.82;100.00;100096.13;5008226;28;20332;-65
2020/12/24 08:03:12;;;;;;;8.20;1.90;;;;;;;2.84;100.00;100097.03;5006716;28;20280;-65
2020/12/24 08:05:37;;;;;;;5.83;1.77;;;;;;;2.86;100.00;100105.69;5008543;28;20284;-65
2020/12/24 08:08:04;;;;;;;5.77;2.00;;;;;;;2.88;100.00;100104.00;5008000;28;20288;-64
2020/12/24 08:10:29;;;;;;;4.80;1.57;;;;;;;2.93;100.00;100101.53;5007939;28;20030;-65
2020/12/24 08:13:13;;;;;;;7.40;2.13;;;;;;;2.92;100.00;100104.97;5005177;28;20311;-65
2020/12/24 08:15:44;;;;;;;3.70;1.63;;;;;;;2.92;100.00;100111.00;5008171;28;20033;-65
2020/12/24 08:18:11;;;;;;;5.93;1.50;;;;;;;2.95;100.00;100115.34;5007006;28;20288;-66
2020/12/24 08:20:45;;;;;;;4.93;2.10;;;;;;;2.99;100.00;100121.44;5008843;28;20296;-65
2020/12/24 08:23:40;;;;;;;6.87;1.83;;;;;;;3.01;100.00;100120.63;5011355;28;20826;-64
2020/12/24 08:26:07;;;;;;;8.77;2.30;;;;;;;3.08;100.00;100119.06;5003945;28;20296;-65
2020/12/24 08:28:33;;;;;;;8.07;1.90;;;;;;;3.07;100.00;100119.91;5008881;28;20284;-66
2020/12/24 08:31:00;;;;;;;4.33;1.57;;;;;;;3.07;100.00;100127.66;5007439;28;20287;-66
2020/12/24 08:33:26;;;;;;;4.47;1.97;;;;;;;3.04;100.00;100130.19;5011580;28;20822;-65
2020/12/24 08:35:51;;;;;;;4.53;1.90;;;;;;;3.08;100.00;100134.56;5010442;28;20284;-64
2020/12/24 08:38:19;;;;;;;5.57;1.63;;;;;;;3.10;100.00;100138.06;5007517;28;20501;-65
2020/12/24 08:40:45;;;;;;;7.43;1.77;;;;;;;3.17;100.00;100134.78;5010958;28;20501;-65
2020/12/24 08:43:12;;;;;;;7.80;2.10;;;;;;;3.20;100.00;100147.75;5009577;28;20334;-65
2020/12/24 08:45:45;;;;;;;6.47;1.83;;;;;;;3.17;100.00;100148.56;5011166;28;20775;-65
2020/12/24 08:48:33;;;;;;;7.03;2.30;;;;;;;3.19;100.00;100149.47;5010372;28;20284;-65
2020/12/24 08:50:59;;;;;;;6.27;2.10;;;;;;;3.26;100.00;100153.03;5009698;28;20273;-65
2020/12/24 08:53:31;;;;;;;7.57;2.47;;;;;;;3.25;100.00;100156.47;5008364;28;20768;-65
2020/12/24 08:55:57;;;;;;;;;;;;;;;3.30;100.00;100172.97;5009679;28;20065;-65
2020/12/24 08:58:22;;;;;;;8.33;2.33;;;;;;;3.32;100.00;100167.81;5008582;28;19945;-65
2020/12/24 09:00:47;;;;;;;5.87;2.57;;;;;;;3.33;100.00;100167.84;5009731;28;20125;-65
2020/12/24 09:03:26;;;;;;;7.33;2.77;;;;;;;3.34;100.00;100172.19;5009183;28;20378;-64
2020/12/24 09:05:52;;;;;;;8.73;2.80;;;;;;;3.35;100.00;100171.34;5009241;28;20048;-66
2020/12/24 09:08:27;;;;;;;7.73;2.53;;;;;;;3.39;100.00;100170.59;5007807;28;20659;-65
2020/12/24 09:10:54;;;;;;;10.90;3.07;;;;;;;3.40;100.00;100172.34;5009740;28;20292;-64
2020/12/24 09:13:19;;;;;;;7.73;2.60;;;;;;;3.46;100.00;100167.28;5009879;28;20288;-64
2020/12/24 09:15:45;;;;;;;8.40;2.70;;;;;;;3.44;100.00;100176.72;5008509;28;20359;-64
2020/12/24 09:18:11;;;;;;;7.17;2.80;;;;;;;3.50;100.00;100181.13;5008665;28;20472;-66
2020/12/24 09:20:37;;;;;;;8.20;2.80;;;;;;;3.52;100.00;100182.94;5009773;28;20036;-64
2020/12/24 09:23:13;;;;;;;5.83;2.60;;;;;;;3.62;100.00;100183.09;5011566;28;20165;-66
2020/12/24 09:25:46;;;;;;;6.83;2.67;;;;;;;3.64;100.00;100186.63;5005041;28;20541;-65
2020/12/24 09:28:22;;;;;;;8.40;3.73;;;;;;;3.75;100.00;100198.03;5009106;28;20300;-65
2020/12/24 09:30:49;;;;;;;6.33;2.93;;;;;;;3.69;100.00;100198.78;5010749;28;20281;-65
2020/12/24 09:33:14;;;;;;;7.20;3.07;;;;;;;3.70;100.00;100200.53;5009529;28;20280;-66
2020/12/24 09:35:40;;;;;;;7.97;3.17;;;;;;;3.73;100.00;100207.47;5009327;28;20696;-65
2020/12/24 09:38:06;;;;;;;5.77;2.70;;;;;;;3.73;100.00;100208.34;5009819;28;20056;-66
2020/12/24 09:40:31;;;;;;;8.00;2.80;;;;;;;3.78;100.00;100221.38;5010599;28;20073;-65
2020/12/24 09:42:57;;;;;;;6.07;2.80;;;;;;;3.76;100.00;100218.78;5007975;28;20129;-65
2020/12/24 09:45:23;;;;;;;9.40;2.90;;;;;;;3.68;100.00;100235.81;5008631;28;20125;-64
2020/12/24 09:47:50;;;;;;;6.37;2.83;;;;;;;3.74;100.00;100242.81;5011633;28;20038;-65
2020/12/24 09:50:16;;;;;;;7.17;2.33;;;;;;;3.77;100.00;100248.97;5010947;28;20283;-63
2020/12/24 09:52:41;;;;;;;10.50;4.27;;;;;;;3.76;100.00;100254.97;5010005;28;20485;-64
2020/12/24 09:55:08;;;;;;;9.43;3.90;;;;;;;3.79;100.00;100256.75;5009285;28;20088;-64
2020/12/24 09:57:34;;;;;;;12.10;4.43;;;;;;;3.84;100.00;100268.03;5009859;28;20041;-65
2020/12/24 10:00:00;;;;;;;8.67;3.80;;;;;;;3.90;100.00;100257.84;5007251;28;20348;-65
2020/12/24 10:02:26;;;;;;;7.40;3.00;;;;;;;3.98;100.00;100261.44;5006717;28;20937;-65
2020/12/24 10:04:54;;;;;;;9.37;3.33;;;;;;;4.06;100.00;100265.06;5010630;28;20283;-65
2020/12/24 10:07:24;;;;;;;6.27;2.40;;;;;;;4.11;100.00;100272.91;5010116;28;20036;-64
2020/12/24 10:09:53;;;;;;;5.80;2.10;;;;;;;4.02;100.00;100267.59;5007205;28;20343;-65
2020/12/24 10:12:19;;;;;;;6.87;2.20;;;;;;;4.03;100.00;100261.56;5009876;28;20779;-65
2020/12/24 10:14:46;;;;;;;5.47;2.17;;;;;;;4.00;100.00;100259.78;5011287;28;20695;-65
2020/12/24 10:17:12;;;;;;;6.07;2.43;;;;;;;4.17;100.00;100272.19;5010571;28;20276;-65
2020/12/24 10:19:38;;;;;;;2.83;1.43;;;;;;;4.17;100.00;100272.19;5009951;28;20296;-65
2020/12/24 10:22:03;;;;;;;8.53;2.50;;;;;;;4.14;100.00;100274.72;4999560;28;20291;-64
2020/12/24 10:24:29;;;;;;;3.93;2.03;;;;;;;4.20;100.00;100285.19;5004671;28;20120;-64
2020/12/24 10:26:55;;;;;;;5.40;2.00;;;;;;;4.17;100.00;100277.38;5003225;28;20044;-65
2020/12/24 10:29:21;;;;;;;7.67;2.53;;;;;;;4.22;100.00;100284.38;5004237;28;20082;-65
2020/12/24 10:31:47;;;;;;;4.73;2.00;;;;;;;4.21;100.00;100281.75;5007204;28;20284;-64
2020/12/24 10:34:13;;;;;;;4.87;2.20;;;;;;;4.27;100.00;100287.06;5004860;28;20863;-64
2020/12/24 10:36:38;;;;;;;8.77;2.20;;;;;;;4.34;100.00;100286.31;5007166;28;20037;-64
2020/12/24 10:39:09;;;;;;;5.37;2.20;;;;;;;4.38;100.00;100283.84;5000683;28;20560;-65
2020/12/24 10:41:36;;;;;;;4.53;2.07;;;;;;;4.41;100.00;100272.66;5004690;28;20034;-64
2020/12/24 10:44:02;;;;;;;5.83;2.23;;;;;;;4.48;100.00;100284.00;4991225;28;20648;-65
2020/12/24 10:46:28;;;;;;;7.57;2.63;;;;;;;4.47;100.00;100282.25;5006138;28;20292;-65
2020/12/24 10:48:53;;;;;;;4.70;2.30;;;;;;;4.47;100.00;100271.91;5007252;28;20405;-65
2020/12/24 10:51:18;;;;;;;5.60;2.27;;;;;;;4.51;100.00;100274.59;5004234;28;20630;-64
2020/12/24 10:53:46;;;;;;;6.07;2.17;;;;;;;4.59;100.00;100275.59;4999134;28;20112;-65
2020/12/24 10:56:15;;;;;;;4.43;2.20;;;;;;;4.66;100.00;100274.88;5003235;28;20073;-64
2020/12/24 10:58:41;;;;;;;4.67;1.87;;;;;;;4.68;100.00;100277.50;5009525;28;20844;-65
2020/12/24 11:01:14;;;;;;;4.23;2.00;;;;;;;4.69;100.00;100282.69;4998728;28;20300;-65
2020/12/24 11:03:40;;;;;;;4.37;1.60;;;;;;;4.70;100.00;100276.66;5005274;28;20794;-65
2020/12/24 11:06:07;;;;;;;3.97;1.57;;;;;;;4.71;100.00;100280.13;5005014;28;20284;-65
2020/12/24 11:08:34;;;;;;;4.60;1.93;;;;;;;4.75;100.00;100274.19;5005081;28;20580;-64
2020/12/24 11:11:00;;;;;;;7.37;1.80;;;;;;;4.80;100.00;100269.06;5014117;28;20281;-65
2020/12/24 11:13:26;;;;;;;4.07;1.70;;;;;;;4.98;100.00;100269.41;5015046;28;20285;-65
2020/12/24 11:15:52;;;;;;;4.30;1.50;;;;;;;5.03;100.00;100269.47;5007910;28;20292;-65
2020/12/24 11:18:18;;;;;;;6.10;1.77;;;;;;;5.15;100.00;100270.53;5006262;28;20532;-65
2020/12/24 11:20:43;;;;;;;2.20;1.10;;;;;;;5.14;100.00;100273.13;5007592;28;20303;-65
2020/12/24 11:23:09;;;;;;;3.50;1.30;;;;;;;5.25;100.00;100275.03;4997480;28;20204;-65
2020/12/24 11:25:34;;;;;;;2.70;1.20;;;;;;;5.24;100.00;100275.00;5010315;28;20029;-65
2020/12/24 11:28:00;;;;;;;3.83;1.50;;;;;;;5.29;100.00;100270.75;5004241;28;20037;-65
2020/12/24 11:30:26;;;;;;;3.80;1.17;;;;;;;5.35;100.00;100264.81;5009241;28;20079;-65
2020/12/24 11:32:51;;;;;;;5.47;1.43;;;;;;;5.32;100.00;100267.34;5007777;28;20030;-65